Time,TemperatureF,DewpointF,PressureIn,WindDirection,WindDirectionDegrees,WindSpeedMPH,WindSpeedGustMPH,Humidity,HourlyPrecipIn,Conditions,Clouds,dailyrainin,SoftwareType,DateUTC
2013-08-04 00:03:00,73.8,71.0,30.14,NNE,32,0.0,0.6,90,0.00,,,0.00,TxWx,2013-08-04 05:03:00,
2013-08-04 00:08:00,73.8,71.0,30.14,NNE,32,0.0,0.0,91,0.00,,,0.00,TxWx,2013-08-04 05:08:00,
2013-08-04 00:14:00,73.7,71.0,30.14,NE,55,0.0,0.6,91,0.00,,,0.00,TxWx,2013-08-04 05:14:00,
2013-08-04 00:19:00,73.7,71.0,30.15,ENE,77,1.2,1.9,91,0.00,,,0.00,TxWx,2013-08-04 05:19:00,
2013-08-04 00:24:00,73.6,71.0,30.15,NE,55,0.6,1.2,92,0.00,,,0.00,TxWx,2013-08-04 05:24:00,
2013-08-04 00:29:00,73.6,71.0,30.14,NE,55,0.6,1.2,92,0.00,,,0.00,TxWx,2013-08-04 05:29:00,
2013-08-04 00:34:00,73.7,72.0,30.15,NE,55,2.5,3.7,92,0.00,,,0.00,TxWx,2013-08-04 05:34:00,
2013-08-04 00:41:00,73.7,72.0,30.14,North,10,1.2,3.7,92,0.00,,,0.00,TxWx,2013-08-04 05:41:00,
2013-08-04 00:46:00,73.8,72.0,30.14,ENE,77,3.1,4.3,92,0.00,,,0.00,TxWx,2013-08-04 05:46:00,
2013-08-04 00:52:00,73.9,71.0,30.14,East,100,1.9,3.1,92,0.00,,,0.00,TxWx,2013-08-04 05:52:00,
2013-08-04 00:57:00,73.8,71.0,30.14,ENE,77,4.3,5.6,92,0.00,,,0.00,TxWx,2013-08-04 05:57:00,
2013-08-04 01:03:00,73.8,71.0,30.14,East,100,4.3,6.2,91,0.00,,,0.00,TxWx,2013-08-04 06:03:00,
2013-08-04 01:08:00,73.8,71.0,30.13,ENE,77,1.9,3.1,90,0.00,,,0.00,TxWx,2013-08-04 06:08:00,
2013-08-04 01:13:00,73.7,71.0,30.13,East,100,3.7,6.8,89,0.00,,,0.00,TxWx,2013-08-04 06:13:00,
2013-08-04 01:18:00,73.7,70.0,30.12,NE,55,1.9,3.1,88,0.00,,,0.00,TxWx,2013-08-04 06:18:00,
2013-08-04 01:24:00,73.6,70.0,30.11,East,100,1.2,3.7,87,0.00,,,0.00,TxWx,2013-08-04 06:24:00,
2013-08-04 01:29:00,73.6,70.0,30.11,ESE,122,6.2,8.0,87,0.00,,,0.00,TxWx,2013-08-04 06:29:00,
2013-08-04 01:34:00,73.6,70.0,30.10,East,100,6.8,6.8,87,0.00,,,0.00,TxWx,2013-08-04 06:34:00,
2013-08-04 01:39:00,73.5,69.0,30.10,East,100,1.9,5.6,86,0.00,,,0.00,TxWx,2013-08-04 06:39:00,
2013-08-04 01:44:00,73.3,68.0,30.10,NNE,32,0.6,2.5,86,0.00,,,0.00,TxWx,2013-08-04 06:44:00,
2013-08-04 01:50:00,73.3,68.0,30.10,ENE,77,1.2,2.5,85,0.00,,,0.00,TxWx,2013-08-04 06:50:00,
2013-08-04 01:55:00,73.2,68.0,30.09,East,100,1.9,3.1,85,0.00,,,0.00,TxWx,2013-08-04 06:55:00,
2013-08-04 02:00:00,73.1,68.0,30.09,ESE,122,5.0,6.8,85,0.00,,,0.00,TxWx,2013-08-04 07:00:00,
2013-08-04 02:05:00,72.9,68.0,30.09,ENE,77,1.9,1.9,84,0.00,,,0.00,TxWx,2013-08-04 07:05:00,
2013-08-04 02:11:00,72.8,68.0,30.10,ESE,122,5.0,5.0,83,0.00,,,0.00,TxWx,2013-08-04 07:11:00,
2013-08-04 02:16:00,72.8,68.0,30.10,East,100,0.6,1.2,83,0.00,,,0.00,TxWx,2013-08-04 07:16:00,
2013-08-04 02:21:00,72.7,68.0,30.10,NE,55,0.6,1.9,83,0.00,,,0.00,TxWx,2013-08-04 07:21:00,
2013-08-04 02:27:00,72.6,67.0,30.11,NE,55,1.2,1.2,83,0.00,,,0.00,TxWx,2013-08-04 07:27:00,
2013-08-04 02:32:00,72.5,66.0,30.11,ENE,77,1.2,1.2,83,0.00,,,0.00,TxWx,2013-08-04 07:32:00,
2013-08-04 02:38:00,72.5,67.0,30.12,ENE,77,1.2,2.5,83,0.00,,,0.00,TxWx,2013-08-04 07:38:00,
2013-08-04 02:43:00,72.3,66.0,30.11,ENE,77,1.9,2.5,82,0.00,,,0.00,TxWx,2013-08-04 07:43:00,
2013-08-04 02:48:00,72.3,66.0,30.12,East,100,2.5,2.5,82,0.00,,,0.00,TxWx,2013-08-04 07:48:00,
2013-08-04 02:53:00,72.3,66.0,30.12,ENE,77,2.5,3.1,81,0.00,,,0.00,TxWx,2013-08-04 07:53:00,
2013-08-04 02:59:00,72.2,66.0,30.12,ENE,77,1.2,2.5,81,0.00,,,0.00,TxWx,2013-08-04 07:59:00,
2013-08-04 03:05:00,72.2,66.0,30.13,East,100,0.6,1.9,82,0.00,,,0.00,TxWx,2013-08-04 08:05:00,
2013-08-04 03:10:00,72.1,66.0,30.13,East,100,0.6,4.3,81,0.00,,,0.00,TxWx,2013-08-04 08:10:00,
2013-08-04 03:15:00,72.1,66.0,30.13,NNE,32,0.6,1.2,82,0.00,,,0.00,TxWx,2013-08-04 08:15:00,
2013-08-04 03:20:00,72.0,66.0,30.12,NE,55,0.6,1.9,81,0.00,,,0.00,TxWx,2013-08-04 08:20:00,
2013-08-04 03:26:00,71.9,66.0,30.12,ENE,77,1.2,1.9,81,0.00,,,0.00,TxWx,2013-08-04 08:26:00,
2013-08-04 03:31:00,71.7,66.0,30.13,NNW,347,0.6,1.9,81,0.00,,,0.00,TxWx,2013-08-04 08:31:00,
2013-08-04 03:37:00,71.6,65.0,30.13,East,100,3.1,4.3,80,0.00,,,0.00,TxWx,2013-08-04 08:37:00,
2013-08-04 03:43:00,71.6,66.0,30.13,ENE,77,0.6,2.5,81,0.00,,,0.00,TxWx,2013-08-04 08:43:00,
2013-08-04 03:48:00,71.5,64.0,30.13,East,100,2.5,4.3,80,0.00,,,0.00,TxWx,2013-08-04 08:48:00,
2013-08-04 03:53:00,71.5,64.0,30.13,East,100,0.6,1.9,80,0.00,,,0.00,TxWx,2013-08-04 08:53:00,
2013-08-04 03:59:00,71.4,64.0,30.13,North,10,0.6,5.6,80,0.00,,,0.00,TxWx,2013-08-04 08:59:00,
2013-08-04 04:04:00,71.3,64.0,30.13,North,10,1.2,2.5,80,0.00,,,0.00,TxWx,2013-08-04 09:04:00,
2013-08-04 04:10:00,71.1,64.0,30.13,East,100,0.6,1.9,80,0.00,,,0.00,TxWx,2013-08-04 09:10:00,
2013-08-04 04:15:00,71.1,64.0,30.12,East,100,1.9,5.0,80,0.00,,,0.00,TxWx,2013-08-04 09:15:00,
2013-08-04 04:20:00,70.9,64.0,30.12,ESE,122,2.5,3.1,79,0.00,,,0.00,TxWx,2013-08-04 09:20:00,
2013-08-04 04:27:00,70.9,64.0,30.12,ESE,122,1.9,3.1,79,0.00,,,0.00,TxWx,2013-08-04 09:27:00,
2013-08-04 04:32:00,70.9,64.0,30.12,NE,55,1.9,3.7,79,0.00,,,0.00,TxWx,2013-08-04 09:32:00,
2013-08-04 04:37:00,70.8,64.0,30.11,NE,55,3.1,3.1,80,0.00,,,0.00,TxWx,2013-08-04 09:37:00,
2013-08-04 04:42:00,70.7,64.0,30.11,ENE,77,1.2,3.7,79,0.00,,,0.00,TxWx,2013-08-04 09:42:00,
2013-08-04 04:48:00,70.7,64.0,30.11,ENE,77,1.2,1.9,80,0.00,,,0.00,TxWx,2013-08-04 09:48:00,
2013-08-04 04:53:00,70.6,64.0,30.10,East,100,1.9,4.3,80,0.00,,,0.00,TxWx,2013-08-04 09:53:00,
2013-08-04 04:58:00,70.6,64.0,30.10,ENE,77,1.2,3.1,80,0.00,,,0.00,TxWx,2013-08-04 09:58:00,
2013-08-04 05:03:00,70.5,63.0,30.10,NNW,347,3.1,3.7,80,0.00,,,0.00,TxWx,2013-08-04 10:03:00,
2013-08-04 05:09:00,70.4,63.0,30.10,East,100,3.1,4.3,80,0.00,,,0.00,TxWx,2013-08-04 10:09:00,
2013-08-04 05:14:00,70.4,64.0,30.10,East,100,0.6,1.9,80,0.00,,,0.00,TxWx,2013-08-04 10:14:00,
2013-08-04 05:19:00,70.2,63.0,30.10,ESE,122,4.3,4.3,80,0.00,,,0.00,TxWx,2013-08-04 10:19:00,
2013-08-04 05:25:00,70.2,64.0,30.10,ENE,77,1.2,2.5,80,0.00,,,0.00,TxWx,2013-08-04 10:25:00,
2013-08-04 05:30:00,70.1,64.0,30.10,East,100,2.5,3.7,80,0.00,,,0.00,TxWx,2013-08-04 10:30:00,
2013-08-04 05:36:00,70.1,64.0,30.10,ENE,77,1.2,2.5,80,0.00,,,0.00,TxWx,2013-08-04 10:36:00,
2013-08-04 05:41:00,69.9,64.0,30.11,East,100,3.1,3.1,81,0.00,,,0.00,TxWx,2013-08-04 10:41:00,
2013-08-04 05:47:00,69.8,63.0,30.11,NNE,32,0.6,1.9,80,0.00,,,0.00,TxWx,2013-08-04 10:47:00,
2013-08-04 05:52:00,69.8,64.0,30.11,ESE,122,1.2,4.3,81,0.00,,,0.00,TxWx,2013-08-04 10:52:00,
2013-08-04 05:58:00,69.8,64.0,30.11,NE,55,0.0,1.2,81,0.00,,,0.00,TxWx,2013-08-04 10:58:00,
2013-08-04 06:03:00,69.8,64.0,30.11,NE,55,0.6,4.3,80,0.00,,,0.00,TxWx,2013-08-04 11:03:00,
2013-08-04 06:08:00,69.8,64.0,30.11,East,100,0.6,1.9,80,0.00,,,0.00,TxWx,2013-08-04 11:08:00,
2013-08-04 06:13:00,69.8,64.0,30.12,East,100,0.6,1.9,81,0.00,,,0.00,TxWx,2013-08-04 11:13:00,
2013-08-04 06:19:00,69.7,64.0,30.12,East,100,0.6,2.5,80,0.00,,,0.00,TxWx,2013-08-04 11:19:00,
2013-08-04 06:24:00,69.7,64.0,30.13,ESE,122,1.2,1.9,81,0.00,,,0.00,TxWx,2013-08-04 11:24:00,
2013-08-04 06:30:00,69.7,64.0,30.13,NE,55,1.2,1.2,81,0.00,,,0.00,TxWx,2013-08-04 11:30:00,
2013-08-04 06:35:00,69.8,64.0,30.13,ENE,77,0.6,2.5,82,0.00,,,0.00,TxWx,2013-08-04 11:35:00,
2013-08-04 06:40:00,69.7,64.0,30.13,ESE,122,3.1,3.1,81,0.00,,,0.00,TxWx,2013-08-04 11:40:00,
2013-08-04 06:46:00,69.7,64.0,30.13,NE,55,1.9,2.5,81,0.00,,,0.00,TxWx,2013-08-04 11:46:00,
2013-08-04 06:52:00,69.6,64.0,30.13,North,10,2.5,2.5,81,0.00,,,0.00,TxWx,2013-08-04 11:52:00,
2013-08-04 06:57:00,69.6,64.0,30.13,NNE,32,1.9,3.7,80,0.00,,,0.00,TxWx,2013-08-04 11:57:00,
2013-08-04 07:03:00,69.6,64.0,30.13,NNE,32,1.2,3.7,81,0.00,,,0.00,TxWx,2013-08-04 12:03:00,
2013-08-04 07:08:00,69.5,64.0,30.13,NE,55,0.6,1.9,80,0.00,,,0.00,TxWx,2013-08-04 12:08:00,
2013-08-04 07:13:00,69.5,64.0,30.13,NE,55,0.0,1.9,81,0.00,,,0.00,TxWx,2013-08-04 12:13:00,
2013-08-04 07:18:00,69.5,63.0,30.13,ESE,122,0.6,1.9,81,0.00,,,0.00,TxWx,2013-08-04 12:18:00,
2013-08-04 07:24:00,69.5,63.0,30.13,NE,55,1.2,3.1,81,0.00,,,0.00,TxWx,2013-08-04 12:24:00,
2013-08-04 07:29:00,69.3,63.0,30.14,NNE,32,0.0,1.2,81,0.00,,,0.00,TxWx,2013-08-04 12:29:00,
2013-08-04 07:35:00,69.3,63.0,30.13,SSE,167,2.5,4.3,81,0.00,,,0.00,TxWx,2013-08-04 12:35:00,
2013-08-04 07:40:00,69.2,63.0,30.13,East,100,3.1,5.0,81,0.00,,,0.00,TxWx,2013-08-04 12:40:00,
2013-08-04 07:45:00,69.2,63.0,30.13,NNE,32,2.5,3.7,81,0.00,,,0.00,TxWx,2013-08-04 12:45:00,
2013-08-04 07:51:00,69.1,63.0,30.13,East,100,0.6,2.5,82,0.00,,,0.00,TxWx,2013-08-04 12:51:00,
2013-08-04 07:57:00,69.1,63.0,30.13,ENE,77,1.2,1.9,82,0.00,,,0.00,TxWx,2013-08-04 12:57:00,
2013-08-04 08:03:00,69.0,63.0,30.13,East,100,0.6,1.9,82,0.00,,,0.00,TxWx,2013-08-04 13:03:00,
2013-08-04 08:08:00,69.1,63.0,30.13,ESE,122,3.1,3.1,82,0.00,,,0.00,TxWx,2013-08-04 13:08:00,
2013-08-04 08:13:00,69.0,63.0,30.13,East,100,1.2,1.9,82,0.00,,,0.00,TxWx,2013-08-04 13:13:00,
2013-08-04 08:19:00,68.9,63.0,30.13,NE,55,1.9,1.9,83,0.00,,,0.00,TxWx,2013-08-04 13:19:00,
2013-08-04 08:24:00,68.9,63.0,30.13,East,100,5.0,6.2,82,0.00,,,0.00,TxWx,2013-08-04 13:24:00,
2013-08-04 08:30:00,69.0,63.0,30.14,SE,145,1.9,5.6,81,0.00,,,0.00,TxWx,2013-08-04 13:30:00,
2013-08-04 08:35:00,69.0,63.0,30.14,NNE,32,1.2,3.1,82,0.00,,,0.00,TxWx,2013-08-04 13:35:00,
2013-08-04 08:40:00,68.9,63.0,30.14,East,100,3.7,4.3,82,0.00,,,0.00,TxWx,2013-08-04 13:40:00,
2013-08-04 08:46:00,68.9,63.0,30.14,ENE,77,3.1,3.1,82,0.00,,,0.00,TxWx,2013-08-04 13:46:00,
2013-08-04 08:51:00,69.0,63.0,30.14,SSW,212,0.6,1.9,82,0.00,,,0.00,TxWx,2013-08-04 13:51:00,
2013-08-04 08:57:00,69.0,63.0,30.13,ENE,77,1.2,4.3,82,0.00,,,0.00,TxWx,2013-08-04 13:57:00,
2013-08-04 09:02:00,69.1,63.0,30.13,ESE,122,2.5,5.0,82,0.00,,,0.00,TxWx,2013-08-04 14:02:00,
2013-08-04 09:07:00,69.2,63.0,30.14,NNE,32,0.6,5.0,83,0.00,,,0.00,TxWx,2013-08-04 14:07:00,
2013-08-04 09:13:00,69.2,63.0,30.14,ESE,122,5.0,5.0,83,0.00,,,0.00,TxWx,2013-08-04 14:13:00,
2013-08-04 09:18:00,69.2,63.0,30.14,SSE,167,2.5,3.7,82,0.00,,,0.00,TxWx,2013-08-04 14:18:00,
2013-08-04 09:24:00,69.2,63.0,30.14,South,190,0.6,5.0,82,0.00,,,0.00,TxWx,2013-08-04 14:24:00,
2013-08-04 09:29:00,69.2,63.0,30.14,ENE,77,4.3,9.3,82,0.00,,,0.00,TxWx,2013-08-04 14:29:00,
2013-08-04 09:34:00,69.2,63.0,30.14,ENE,77,1.2,3.7,82,0.00,,,0.00,TxWx,2013-08-04 14:34:00,
2013-08-04 09:40:00,69.1,63.0,30.14,SSE,167,8.0,8.7,82,0.00,,,0.00,TxWx,2013-08-04 14:40:00,
2013-08-04 09:45:00,69.0,63.0,30.14,SSE,167,1.9,5.0,82,0.00,,,0.00,TxWx,2013-08-04 14:45:00,
2013-08-04 09:51:00,69.0,64.0,30.15,East,100,4.3,4.3,84,0.00,,,0.00,TxWx,2013-08-04 14:51:00,
2013-08-04 09:56:00,68.9,64.0,30.15,South,190,1.2,6.2,85,0.00,,,0.00,TxWx,2013-08-04 14:56:00,
2013-08-04 10:02:00,68.9,64.0,30.16,ENE,77,3.7,3.7,86,0.00,,,0.00,TxWx,2013-08-04 15:02:00,
2013-08-04 10:07:00,68.8,64.0,30.16,ESE,122,1.9,4.3,86,0.00,,,0.00,TxWx,2013-08-04 15:07:00,
2013-08-04 10:13:00,68.7,65.0,30.16,ESE,122,2.5,5.0,87,0.00,,,0.00,TxWx,2013-08-04 15:13:00,
2013-08-04 10:19:00,68.5,65.0,30.16,ENE,77,3.1,3.7,87,0.00,,,0.00,TxWx,2013-08-04 15:19:00,
2013-08-04 10:24:00,68.4,64.0,30.16,NNE,32,0.6,2.5,88,0.00,,,0.00,TxWx,2013-08-04 15:24:00,
2013-08-04 10:30:00,68.2,65.0,30.16,ENE,77,2.5,6.2,89,0.00,,,0.00,TxWx,2013-08-04 15:30:00,
2013-08-04 10:35:00,68.1,65.0,30.16,ENE,77,1.9,1.9,90,0.00,,,0.00,TxWx,2013-08-04 15:35:00,
2013-08-04 10:40:00,67.9,65.0,30.16,East,100,4.3,6.2,91,0.00,,,0.00,TxWx,2013-08-04 15:40:00,
2013-08-04 10:46:00,67.9,65.0,30.16,ENE,77,1.2,1.9,92,0.00,,,0.01,TxWx,2013-08-04 15:46:00,
2013-08-04 10:51:00,67.7,66.0,30.15,NE,55,1.2,1.9,92,0.60,,,0.01,TxWx,2013-08-04 15:51:00,
2013-08-04 10:57:00,67.6,66.0,30.15,East,100,2.5,5.0,93,0.60,,,0.02,TxWx,2013-08-04 15:57:00,
2013-08-04 11:02:00,67.6,66.0,30.15,ENE,77,1.9,2.5,93,0.60,,,0.03,TxWx,2013-08-04 16:02:00,
2013-08-04 11:07:00,67.5,65.0,30.15,North,10,0.0,3.1,93,0.60,,,0.04,TxWx,2013-08-04 16:07:00,
2013-08-04 11:12:00,67.4,65.0,30.15,NNW,347,1.2,1.9,94,0.60,,,0.05,TxWx,2013-08-04 16:12:00,
2013-08-04 11:17:00,67.3,65.0,30.15,NNW,347,0.6,1.2,94,0.60,,,0.06,TxWx,2013-08-04 16:17:00,
2013-08-04 11:23:00,67.2,65.0,30.16,NNE,32,0.6,1.9,95,0.60,,,0.07,TxWx,2013-08-04 16:23:00,
2013-08-04 11:28:00,67.2,66.0,30.16,ESE,122,3.1,3.7,95,0.60,,,0.09,TxWx,2013-08-04 16:28:00,
2013-08-04 11:33:00,67.2,66.0,30.16,NE,55,1.9,3.1,95,0.60,,,0.10,TxWx,2013-08-04 16:33:00,
2013-08-04 11:39:00,67.1,66.0,30.16,East,100,1.2,1.9,96,0.60,,,0.12,TxWx,2013-08-04 16:39:00,
2013-08-04 11:44:00,67.0,66.0,30.15,East,100,0.0,1.9,96,0.60,,,0.12,TxWx,2013-08-04 16:44:00,
2013-08-04 11:49:00,67.0,66.0,30.15,East,100,0.6,1.9,96,0.60,,,0.13,TxWx,2013-08-04 16:49:00,
2013-08-04 11:54:00,66.9,66.0,30.15,SE,145,1.9,1.9,96,0.60,,,0.14,TxWx,2013-08-04 16:54:00,
2013-08-04 12:00:00,67.0,66.0,30.15,East,100,1.9,2.5,97,0.60,,,0.15,TxWx,2013-08-04 17:00:00,
2013-08-04 12:05:00,67.1,66.0,30.14,East,100,3.1,3.7,97,0.60,,,0.16,TxWx,2013-08-04 17:05:00,
2013-08-04 12:11:00,67.2,66.0,30.14,NE,55,0.0,0.6,97,0.60,,,0.17,TxWx,2013-08-04 17:11:00,
2013-08-04 12:16:00,67.1,66.0,30.14,NNW,347,1.2,1.2,97,0.60,,,0.17,TxWx,2013-08-04 17:16:00,
2013-08-04 12:21:00,67.2,66.0,30.14,ESE,122,1.2,3.1,98,0.60,,,0.18,TxWx,2013-08-04 17:21:00,
2013-08-04 12:27:00,67.2,66.0,30.14,East,100,1.9,3.1,98,0.60,,,0.18,TxWx,2013-08-04 17:27:00,
2013-08-04 12:32:00,67.2,66.0,30.14,East,100,1.2,1.2,98,0.60,,,0.19,TxWx,2013-08-04 17:32:00,
2013-08-04 12:38:00,67.3,67.0,30.14,East,100,2.5,2.5,99,0.60,,,0.19,TxWx,2013-08-04 17:38:00,
2013-08-04 12:43:00,67.4,67.0,30.14,SE,145,0.6,3.1,99,0.00,,,0.19,TxWx,2013-08-04 17:43:00,
2013-08-04 12:49:00,67.4,67.0,30.13,East,100,0.6,3.1,99,0.00,,,0.20,TxWx,2013-08-04 17:49:00,
2013-08-04 12:54:00,67.4,67.0,30.13,NE,55,1.2,3.1,99,0.60,,,0.20,TxWx,2013-08-04 17:54:00,
2013-08-04 12:59:00,67.4,67.0,30.13,NNE,32,0.6,1.2,99,0.60,,,0.20,TxWx,2013-08-04 17:59:00,
2013-08-04 13:05:00,67.5,68.0,30.13,NE,55,1.9,4.3,99,0.00,,,0.21,TxWx,2013-08-04 18:05:00,
2013-08-04 13:12:00,67.7,68.0,30.12,ESE,122,1.9,1.9,99,0.60,,,0.22,TxWx,2013-08-04 18:12:00,
2013-08-04 13:18:00,67.8,68.0,30.12,NE,55,1.2,1.9,100,0.60,,,0.22,TxWx,2013-08-04 18:18:00,
2013-08-04 13:23:00,67.9,68.0,30.12,NNE,32,1.2,3.7,100,0.60,,,0.22,TxWx,2013-08-04 18:23:00,
2013-08-04 13:28:00,68.1,68.0,30.12,East,100,1.9,3.1,100,0.60,,,0.22,TxWx,2013-08-04 18:28:00,
2013-08-04 13:33:00,68.3,68.0,30.12,ENE,77,3.7,4.3,100,0.00,,,0.23,TxWx,2013-08-04 18:33:00,
2013-08-04 13:39:00,68.5,68.0,30.11,NE,55,0.6,2.5,100,0.00,,,0.23,TxWx,2013-08-04 18:39:00,
2013-08-04 13:44:00,68.5,68.0,30.11,East,100,2.5,6.2,100,0.60,,,0.23,TxWx,2013-08-04 18:44:00,
2013-08-04 13:50:00,68.6,69.0,30.11,ENE,77,1.9,3.7,100,0.60,,,0.23,TxWx,2013-08-04 18:50:00,
2013-08-04 13:55:00,68.7,69.0,30.11,East,100,0.6,5.6,100,0.00,,,0.23,TxWx,2013-08-04 18:55:00,
2013-08-04 14:00:00,68.7,69.0,30.11,East,100,0.6,2.5,100,0.00,,,0.23,TxWx,2013-08-04 19:00:00,
2013-08-04 14:07:00,68.6,69.0,30.11,ENE,77,1.2,2.5,100,0.00,,,0.23,TxWx,2013-08-04 19:07:00,
2013-08-04 14:12:00,68.7,69.0,30.11,East,100,1.2,1.2,100,0.00,,,0.23,TxWx,2013-08-04 19:12:00,
2013-08-04 14:18:00,68.9,69.0,30.10,NE,55,1.9,3.1,100,0.00,,,0.23,TxWx,2013-08-04 19:18:00,
2013-08-04 14:22:00,68.9,69.0,30.10,NNE,32,1.9,3.7,100,0.00,,,0.23,TxWx,2013-08-04 19:22:00,
2013-08-04 14:28:00,69.0,69.0,30.10,SSW,212,1.9,2.5,100,0.00,,,0.23,TxWx,2013-08-04 19:28:00,
2013-08-04 14:33:00,69.0,69.0,30.10,NE,55,1.2,4.3,100,0.00,,,0.23,TxWx,2013-08-04 19:33:00,
2013-08-04 14:38:00,69.3,69.0,30.10,NNW,347,0.6,1.9,100,0.00,,,0.23,TxWx,2013-08-04 19:38:00,
2013-08-04 14:44:00,69.4,69.0,30.10,East,100,1.2,1.9,100,0.00,,,0.23,TxWx,2013-08-04 19:44:00,
2013-08-04 14:49:00,69.5,69.0,30.10,SSE,167,0.6,1.2,100,0.00,,,0.23,TxWx,2013-08-04 19:49:00,
2013-08-04 14:55:00,69.6,70.0,30.10,ENE,77,1.9,2.5,100,0.00,,,0.23,TxWx,2013-08-04 19:55:00,
2013-08-04 15:00:00,69.7,70.0,30.10,East,100,0.6,2.5,100,0.00,,,0.23,TxWx,2013-08-04 20:00:00,
2013-08-04 15:05:00,69.8,70.0,30.09,ESE,122,1.9,2.5,100,0.00,,,0.23,TxWx,2013-08-04 20:05:00,
2013-08-04 15:11:00,69.9,70.0,30.09,NE,55,0.6,1.9,100,0.00,,,0.23,TxWx,2013-08-04 20:11:00,
2013-08-04 15:16:00,70.0,70.0,30.09,NNE,32,0.6,1.9,100,0.00,,,0.23,TxWx,2013-08-04 20:16:00,
2013-08-04 15:21:00,70.1,70.0,30.09,SE,145,1.2,2.5,100,0.00,,,0.23,TxWx,2013-08-04 20:21:00,
2013-08-04 15:27:00,70.1,70.0,30.08,ENE,77,0.6,1.2,100,0.00,,,0.23,TxWx,2013-08-04 20:27:00,
2013-08-04 15:33:00,70.3,70.0,30.08,SSE,167,3.1,4.3,100,0.00,,,0.23,TxWx,2013-08-04 20:33:00,
2013-08-04 15:38:00,70.3,70.0,30.08,ESE,122,0.6,2.5,100,0.00,,,0.23,TxWx,2013-08-04 20:38:00,
2013-08-04 15:44:00,70.4,70.0,30.08,ESE,122,3.1,5.0,100,0.00,,,0.23,TxWx,2013-08-04 20:44:00,
2013-08-04 15:49:00,70.7,71.0,30.08,ENE,77,1.9,4.3,100,0.00,,,0.23,TxWx,2013-08-04 20:49:00,
2013-08-04 15:54:00,70.7,71.0,30.08,NE,55,0.6,1.9,100,0.00,,,0.23,TxWx,2013-08-04 20:54:00,
2013-08-04 15:59:00,70.7,71.0,30.08,WNW,302,0.6,1.2,100,0.00,,,0.23,TxWx,2013-08-04 20:59:00,
2013-08-04 16:05:00,70.6,71.0,30.08,North,10,0.6,1.2,100,0.00,,,0.23,TxWx,2013-08-04 21:05:00,
2013-08-04 16:10:00,70.7,71.0,30.08,East,100,0.0,1.2,100,0.00,,,0.23,TxWx,2013-08-04 21:10:00,
2013-08-04 16:16:00,70.7,71.0,30.08,NNE,32,0.0,0.6,100,0.00,,,0.23,TxWx,2013-08-04 21:16:00,
2013-08-04 16:21:00,70.7,71.0,30.08,North,10,0.0,1.9,100,0.00,,,0.23,TxWx,2013-08-04 21:21:00,
2013-08-04 16:27:00,70.7,71.0,30.08,SSE,167,0.6,2.5,100,0.00,,,0.23,TxWx,2013-08-04 21:27:00,
2013-08-04 16:32:00,70.8,71.0,30.08,East,100,1.2,2.5,100,0.00,,,0.23,TxWx,2013-08-04 21:32:00,
2013-08-04 16:37:00,70.8,71.0,30.08,NE,55,0.6,3.7,100,0.00,,,0.23,TxWx,2013-08-04 21:37:00,
2013-08-04 16:42:00,70.9,71.0,30.07,East,100,1.2,5.6,100,0.00,,,0.23,TxWx,2013-08-04 21:42:00,
2013-08-04 16:47:00,71.1,71.0,30.07,ENE,77,0.0,1.9,100,0.00,,,0.23,TxWx,2013-08-04 21:47:00,
2013-08-04 16:50:00,71.1,71.0,30.07,NE,55,2.5,2.5,100,0.00,,,0.23,TxWx,2013-08-04 21:50:00,
2013-08-04 16:56:00,71.1,71.0,30.07,East,100,1.2,5.6,100,0.00,,,0.23,TxWx,2013-08-04 21:56:00,
2013-08-04 17:02:00,71.1,71.0,30.06,NNE,32,1.9,2.5,100,0.00,,,0.23,TxWx,2013-08-04 22:02:00,
2013-08-04 17:08:00,71.1,71.0,30.06,East,100,1.9,2.5,100,0.00,,,0.23,TxWx,2013-08-04 22:08:00,
2013-08-04 17:13:00,71.1,71.0,30.06,ENE,77,0.6,3.7,100,0.00,,,0.23,TxWx,2013-08-04 22:13:00,
2013-08-04 17:19:00,71.0,71.0,30.06,ENE,77,2.5,6.8,100,0.00,,,0.23,TxWx,2013-08-04 22:19:00,
2013-08-04 17:24:00,71.0,71.0,30.06,NE,55,1.2,3.7,100,0.00,,,0.23,TxWx,2013-08-04 22:24:00,
2013-08-04 17:29:00,71.0,71.0,30.06,NE,55,0.6,1.2,100,0.00,,,0.23,TxWx,2013-08-04 22:29:00,
2013-08-04 17:35:00,71.0,71.0,30.06,ENE,77,1.9,2.5,100,0.00,,,0.23,TxWx,2013-08-04 22:35:00,
2013-08-04 17:40:00,70.9,71.0,30.06,East,100,0.6,1.2,100,0.00,,,0.23,TxWx,2013-08-04 22:40:00,
2013-08-04 17:45:00,70.9,71.0,30.06,WSW,257,4.3,4.3,100,0.00,,,0.23,TxWx,2013-08-04 22:45:00,
2013-08-04 17:50:00,70.9,71.0,30.06,NNE,32,1.2,2.5,100,0.00,,,0.23,TxWx,2013-08-04 22:50:00,
2013-08-04 17:57:00,70.9,71.0,30.06,SSE,167,1.2,3.1,100,0.00,,,0.23,TxWx,2013-08-04 22:57:00,
2013-08-04 18:02:00,70.9,71.0,30.06,East,100,4.3,5.0,100,0.00,,,0.23,TxWx,2013-08-04 23:02:00,
2013-08-04 18:08:00,70.9,71.0,30.05,East,100,1.9,3.1,100,0.00,,,0.23,TxWx,2013-08-04 23:08:00,
2013-08-04 18:13:00,70.9,71.0,30.05,East,100,1.9,3.1,100,0.00,,,0.23,TxWx,2013-08-04 23:13:00,
2013-08-04 18:18:00,70.9,71.0,30.05,NNE,32,1.9,5.0,100,0.00,,,0.23,TxWx,2013-08-04 23:18:00,
2013-08-04 18:24:00,70.8,71.0,30.05,NE,55,2.5,5.6,100,0.00,,,0.23,TxWx,2013-08-04 23:24:00,
2013-08-04 18:29:00,70.8,71.0,30.05,East,100,1.2,1.9,100,0.00,,,0.23,TxWx,2013-08-04 23:29:00,
2013-08-04 18:35:00,70.9,71.0,30.04,South,190,0.6,3.7,100,0.00,,,0.23,TxWx,2013-08-04 23:35:00,
2013-08-04 18:40:00,70.8,71.0,30.04,East,100,0.6,2.5,100,0.00,,,0.23,TxWx,2013-08-04 23:40:00,
2013-08-04 18:45:00,70.8,71.0,30.04,NE,55,0.6,1.9,100,0.00,,,0.23,TxWx,2013-08-04 23:45:00,
2013-08-04 18:50:00,70.7,71.0,30.04,East,100,3.1,3.1,100,0.00,,,0.23,TxWx,2013-08-04 23:50:00,
2013-08-04 18:56:00,70.7,71.0,30.04,East,100,1.2,3.1,100,0.00,,,0.23,TxWx,2013-08-04 23:56:00,
2013-08-04 19:01:00,70.6,71.0,30.04,ENE,77,0.6,3.1,100,0.00,,,0.23,TxWx,2013-08-05 00:01:00,
2013-08-04 19:07:00,70.6,71.0,30.04,SSE,167,1.2,2.5,100,0.00,,,0.23,TxWx,2013-08-05 00:07:00,
2013-08-04 19:13:00,70.6,71.0,30.04,NE,55,0.6,1.2,100,0.00,,,0.23,TxWx,2013-08-05 00:13:00,
2013-08-04 19:18:00,70.5,70.0,30.04,ENE,77,0.6,0.6,100,0.00,,,0.23,TxWx,2013-08-05 00:18:00,
2013-08-04 19:24:00,70.5,70.0,30.04,NE,55,0.6,1.9,100,0.60,,,0.25,TxWx,2013-08-05 00:24:00,
2013-08-04 19:29:00,70.5,70.0,30.04,East,100,0.6,1.9,100,0.60,,,0.25,TxWx,2013-08-05 00:29:00,
2013-08-04 19:35:00,70.4,70.0,30.03,South,190,1.2,3.1,100,0.60,,,0.25,TxWx,2013-08-05 00:35:00,
2013-08-04 19:39:00,70.3,70.0,30.03,ENE,77,1.9,1.9,100,0.60,,,0.25,TxWx,2013-08-05 00:39:00,
2013-08-04 19:45:00,70.3,70.0,30.04,NNE,32,0.6,1.2,100,0.00,,,0.26,TxWx,2013-08-05 00:45:00,
2013-08-04 19:50:00,70.3,70.0,30.04,South,190,1.2,2.5,100,0.00,,,0.26,TxWx,2013-08-05 00:50:00,
2013-08-04 19:55:00,70.2,70.0,30.04,WSW,257,0.6,1.9,100,0.60,,,0.26,TxWx,2013-08-05 00:55:00,
2013-08-04 20:01:00,70.1,70.0,30.05,East,100,0.0,1.2,100,0.00,,,0.26,TxWx,2013-08-05 01:01:00,
2013-08-04 20:07:00,70.1,70.0,30.05,NE,55,0.0,1.2,100,0.00,,,0.26,TxWx,2013-08-05 01:07:00,
2013-08-04 20:13:00,70.1,70.0,30.05,North,10,0.0,2.5,100,0.60,,,0.27,TxWx,2013-08-05 01:13:00,
2013-08-04 20:18:00,70.1,70.0,30.05,NNW,347,0.0,0.6,100,0.60,,,0.27,TxWx,2013-08-05 01:18:00,
2013-08-04 20:24:00,70.1,70.0,30.05,West,280,0.6,1.2,100,0.00,,,0.27,TxWx,2013-08-05 01:24:00,
2013-08-04 20:29:00,70.1,70.0,30.05,NNW,347,0.0,1.2,100,0.00,,,0.28,TxWx,2013-08-05 01:29:00,
2013-08-04 20:35:00,70.1,70.0,30.05,NNE,32,0.0,0.6,100,0.60,,,0.28,TxWx,2013-08-05 01:35:00,
2013-08-04 20:40:00,70.1,70.0,30.05,SE,145,0.6,1.2,100,0.00,,,0.28,TxWx,2013-08-05 01:40:00,
2013-08-04 20:46:00,70.2,70.0,30.05,WNW,302,0.6,1.2,100,0.00,,,0.28,TxWx,2013-08-05 01:46:00,
2013-08-04 20:51:00,70.2,70.0,30.05,NE,55,0.0,1.2,100,0.00,,,0.28,TxWx,2013-08-05 01:51:00,
2013-08-04 20:56:00,70.1,70.0,30.05,NE,55,0.6,0.6,100,0.00,,,0.28,TxWx,2013-08-05 01:56:00,
2013-08-04 21:02:00,70.2,70.0,30.05,NE,55,0.0,0.6,100,0.00,,,0.28,TxWx,2013-08-05 02:02:00,
2013-08-04 21:07:00,70.1,70.0,30.05,NE,55,0.6,1.2,100,0.00,,,0.28,TxWx,2013-08-05 02:07:00,
2013-08-04 21:13:00,70.1,70.0,30.06,NE,55,0.0,0.6,100,0.00,,,0.28,TxWx,2013-08-05 02:13:00,
2013-08-04 21:19:00,70.1,70.0,30.06,NE,55,0.0,0.6,100,0.00,,,0.28,TxWx,2013-08-05 02:19:00,
2013-08-04 21:24:00,70.1,70.0,30.06,NE,55,0.6,1.9,100,0.00,,,0.28,TxWx,2013-08-05 02:24:00,
2013-08-04 21:29:00,70.1,70.0,30.06,NE,55,0.6,1.2,100,0.00,,,0.28,TxWx,2013-08-05 02:29:00,
2013-08-04 21:35:00,70.1,70.0,30.06,NNE,32,0.0,0.6,100,0.00,,,0.28,TxWx,2013-08-05 02:35:00,
2013-08-04 21:40:00,70.1,70.0,30.06,NNE,32,0.0,1.2,100,0.00,,,0.28,TxWx,2013-08-05 02:40:00,
2013-08-04 21:45:00,70.1,70.0,30.07,NW,325,1.2,1.2,100,0.00,,,0.28,TxWx,2013-08-05 02:45:00,
2013-08-04 21:50:00,70.1,70.0,30.07,NE,55,0.0,1.9,100,0.00,,,0.28,TxWx,2013-08-05 02:50:00,
2013-08-04 21:56:00,70.2,70.0,30.07,NNE,32,0.0,0.6,100,0.00,,,0.28,TxWx,2013-08-05 02:56:00,
2013-08-04 22:02:00,70.2,70.0,30.07,NNE,32,0.0,0.6,100,0.00,,,0.28,TxWx,2013-08-05 03:02:00,
2013-08-04 22:07:00,70.2,70.0,30.07,NE,55,0.6,0.6,100,0.00,,,0.28,TxWx,2013-08-05 03:07:00,
2013-08-04 22:12:00,70.2,70.0,30.07,North,10,0.0,0.6,100,0.00,,,0.28,TxWx,2013-08-05 03:12:00,
2013-08-04 22:19:00,70.2,70.0,30.08,NNE,32,0.0,0.6,100,0.00,,,0.28,TxWx,2013-08-05 03:19:00,
2013-08-04 22:24:00,70.2,70.0,30.07,NNE,32,0.6,0.6,100,0.00,,,0.28,TxWx,2013-08-05 03:24:00,
2013-08-04 22:29:00,70.2,70.0,30.08,ENE,77,0.6,1.2,100,0.00,,,0.28,TxWx,2013-08-05 03:29:00,
2013-08-04 22:34:00,70.2,70.0,30.07,NE,55,0.0,0.6,100,0.00,,,0.28,TxWx,2013-08-05 03:34:00,
2013-08-04 22:40:00,70.2,70.0,30.07,NNE,32,0.0,0.6,100,0.00,,,0.28,TxWx,2013-08-05 03:40:00,
2013-08-04 22:45:00,70.2,70.0,30.07,NNE,32,0.0,0.6,100,0.00,,,0.28,TxWx,2013-08-05 03:45:00,
2013-08-04 22:50:00,70.2,70.0,30.08,East,100,0.6,1.9,100,0.00,,,0.28,TxWx,2013-08-05 03:50:00,
2013-08-04 22:56:00,70.2,70.0,30.07,ENE,77,0.6,1.2,100,0.00,,,0.29,TxWx,2013-08-05 03:56:00,
2013-08-04 23:01:00,70.2,70.0,30.07,ENE,77,0.0,1.2,100,0.60,,,0.29,TxWx,2013-08-05 04:01:00,
2013-08-04 23:03:00,70.2,70.0,30.07,East,100,0.6,1.9,100,0.60,,,0.29,TxWx,2013-08-05 04:03:00,
2013-08-04 23:05:00,70.2,70.0,30.07,NE,55,0.0,0.6,100,0.60,,,0.29,TxWx,2013-08-05 04:05:00,
2013-08-04 23:06:00,70.2,70.0,30.07,ENE,77,0.0,1.2,100,0.60,,,0.30,TxWx,2013-08-05 04:06:00,
2013-08-04 23:07:00,70.2,70.0,30.07,ENE,77,0.6,1.9,100,0.60,,,0.30,TxWx,2013-08-05 04:07:00,
2013-08-04 23:12:00,70.2,70.0,30.07,ENE,77,0.0,1.9,100,0.60,,,0.30,TxWx,2013-08-05 04:12:00,
2013-08-04 23:18:00,70.2,70.0,30.06,East,100,1.2,1.9,100,0.60,,,0.31,TxWx,2013-08-05 04:18:00,
2013-08-04 23:24:00,70.1,70.0,30.06,ESE,122,1.2,1.2,100,0.60,,,0.31,TxWx,2013-08-05 04:24:00,
2013-08-04 23:29:00,70.1,70.0,30.06,North,10,0.6,0.6,100,0.60,,,0.31,TxWx,2013-08-05 04:29:00,
2013-08-04 23:35:00,70.1,70.0,30.06,ENE,77,0.6,2.5,100,0.00,,,0.31,TxWx,2013-08-05 04:35:00,
2013-08-04 23:40:00,70.1,70.0,30.06,NNE,32,0.0,0.6,100,0.00,,,0.31,TxWx,2013-08-05 04:40:00,
2013-08-04 23:45:00,70.1,70.0,30.06,South,190,1.2,2.5,100,0.00,,,0.31,TxWx,2013-08-05 04:45:00,
2013-08-04 23:50:00,70.0,70.0,30.06,ESE,122,1.2,1.9,100,0.00,,,0.31,TxWx,2013-08-05 04:50:00,
2013-08-04 23:55:00,70.0,70.0,30.06,NE,55,0.0,0.6,100,0.00,,,0.31,TxWx,2013-08-05 04:55:00,